sensor_id;sensor_type;location;lat;lon;timestamp;P1;durP1;ratioP1;P2;durP2;ratioP2
64609;SDS011;51019;46.090;6.350;2022-10-19T00:01:06;753.42;;;669.15;;
64609;SDS011;51019;46.090;6.350;2022-10-19T00:03:37;686.95;;;611.20;;
64609;SDS011;51019;46.090;6.350;2022-10-19T00:06:14;806.13;;;712.67;;
64609;SDS011;51019;46.090;6.350;2022-10-19T00:08:43;897.00;;;784.97;;
64609;SDS011;51019;46.090;6.350;2022-10-19T00:11:11;834.38;;;724.53;;
64609;SDS011;51019;46.090;6.350;2022-10-19T00:13:39;856.17;;;738.72;;
64609;SDS011;51019;46.090;6.350;2022-10-19T00:16:09;832.47;;;722.58;;
64609;SDS011;51019;46.090;6.350;2022-10-19T00:18:38;814.85;;;713.70;;
64609;SDS011;51019;46.090;6.350;2022-10-19T00:21:08;793.97;;;686.65;;
64609;SDS011;51019;46.090;6.350;2022-10-19T00:23:38;745.20;;;643.28;;
64609;SDS011;51019;46.090;6.350;2022-10-19T00:26:06;736.65;;;643.90;;
64609;SDS011;51019;46.090;6.350;2022-10-19T00:28:33;730.90;;;649.80;;
64609;SDS011;51019;46.090;6.350;2022-10-19T00:31:02;785.97;;;698.25;;
64609;SDS011;51019;46.090;6.350;2022-10-19T00:33:31;800.50;;;695.75;;
64609;SDS011;51019;46.090;6.350;2022-10-19T00:35:58;838.92;;;738.05;;
64609;SDS011;51019;46.090;6.350;2022-10-19T00:38:26;870.65;;;739.97;;
64609;SDS011;51019;46.090;6.350;2022-10-19T00:40:56;829.08;;;704.55;;
64609;SDS011;51019;46.090;6.350;2022-10-19T00:43:26;801.17;;;684.00;;
64609;SDS011;51019;46.090;6.350;2022-10-19T00:45:56;800.80;;;692.97;;
64609;SDS011;51019;46.090;6.350;2022-10-19T00:48:25;772.38;;;674.90;;
64609;SDS011;51019;46.090;6.350;2022-10-19T00:50:58;764.80;;;657.00;;
64609;SDS011;51019;46.090;6.350;2022-10-19T00:53:26;720.95;;;626.95;;
64609;SDS011;51019;46.090;6.350;2022-10-19T00:55:58;820.50;;;707.97;;
64609;SDS011;51019;46.090;6.350;2022-10-19T00:58:29;732.05;;;648.25;;
64609;SDS011;51019;46.090;6.350;2022-10-19T01:00:57;655.20;;;582.17;;
64609;SDS011;51019;46.090;6.350;2022-10-19T01:03:27;617.90;;;541.85;;
64609;SDS011;51019;46.090;6.350;2022-10-19T01:05:54;622.28;;;545.72;;
64609;SDS011;51019;46.090;6.350;2022-10-19T01:08:22;562.45;;;490.02;;
64609;SDS011;51019;46.090;6.350;2022-10-19T01:10:51;648.00;;;575.92;;
64609;SDS011;51019;46.090;6.350;2022-10-19T01:13:34;608.17;;;539.72;;
64609;SDS011;51019;46.090;6.350;2022-10-19T01:16:12;588.17;;;521.33;;
64609;SDS011;51019;46.090;6.350;2022-10-19T01:18:48;631.63;;;560.35;;
64609;SDS011;51019;46.090;6.350;2022-10-19T01:21:24;684.72;;;597.72;;
64609;SDS011;51019;46.090;6.350;2022-10-19T01:23:59;612.15;;;539.38;;
64609;SDS011;51019;46.090;6.350;2022-10-19T01:27:05;579.15;;;515.35;;
64609;SDS011;51019;46.090;6.350;2022-10-19T01:32:48;633.33;;;551.22;;
64609;SDS011;51019;46.090;6.350;2022-10-19T01:35:24;515.75;;;458.38;;
64609;SDS011;51019;46.090;6.350;2022-10-19T01:40:31;609.67;;;542.80;;
64609;SDS011;51019;46.090;6.350;2022-10-19T01:43:08;667.05;;;590.30;;
64609;SDS011;51019;46.090;6.350;2022-10-19T01:45:46;668.55;;;582.13;;
64609;SDS011;51019;46.090;6.350;2022-10-19T01:48:31;636.65;;;552.78;;
64609;SDS011;51019;46.090;6.350;2022-10-19T01:51:04;725.53;;;618.47;;
64609;SDS011;51019;46.090;6.350;2022-10-19T01:53:36;764.17;;;649.30;;
64609;SDS011;51019;46.090;6.350;2022-10-19T01:56:08;760.03;;;648.70;;
64609;SDS011;51019;46.090;6.350;2022-10-19T01:58:38;711.53;;;616.75;;
64609;SDS011;51019;46.090;6.350;2022-10-19T02:01:12;702.13;;;615.45;;
64609;SDS011;51019;46.090;6.350;2022-10-19T02:03:46;768.00;;;658.85;;
64609;SDS011;51019;46.090;6.350;2022-10-19T02:06:15;774.75;;;662.20;;
64609;SDS011;51019;46.090;6.350;2022-10-19T02:08:45;695.33;;;592.58;;
64609;SDS011;51019;46.090;6.350;2022-10-19T02:11:14;661.05;;;583.05;;
64609;SDS011;51019;46.090;6.350;2022-10-19T02:13:42;696.85;;;597.47;;
64609;SDS011;51019;46.090;6.350;2022-10-19T02:16:18;710.47;;;617.83;;
64609;SDS011;51019;46.090;6.350;2022-10-19T02:18:50;720.25;;;625.40;;
64609;SDS011;51019;46.090;6.350;2022-10-19T02:21:20;691.33;;;594.97;;
64609;SDS011;51019;46.090;6.350;2022-10-19T02:23:48;650.53;;;554.50;;
64609;SDS011;51019;46.090;6.350;2022-10-19T02:26:20;598.40;;;497.63;;
64609;SDS011;51019;46.090;6.350;2022-10-19T02:28:48;695.20;;;594.42;;
64609;SDS011;51019;46.090;6.350;2022-10-19T02:31:18;669.03;;;582.30;;
64609;SDS011;51019;46.090;6.350;2022-10-19T02:33:46;650.33;;;570.45;;
64609;SDS011;51019;46.090;6.350;2022-10-19T02:36:14;623.67;;;540.40;;
64609;SDS011;51019;46.090;6.350;2022-10-19T02:38:44;670.90;;;561.58;;
64609;SDS011;51019;46.090;6.350;2022-10-19T02:41:12;657.17;;;575.10;;
64609;SDS011;51019;46.090;6.350;2022-10-19T02:43:47;721.05;;;622.75;;
64609;SDS011;51019;46.090;6.350;2022-10-19T02:46:19;706.25;;;608.17;;
64609;SDS011;51019;46.090;6.350;2022-10-19T02:48:55;720.25;;;628.83;;
64609;SDS011;51019;46.090;6.350;2022-10-19T02:51:28;768.13;;;661.65;;
64609;SDS011;51019;46.090;6.350;2022-10-19T02:54:02;720.40;;;623.17;;
64609;SDS011;51019;46.090;6.350;2022-10-19T02:56:30;749.25;;;660.35;;
64609;SDS011;51019;46.090;6.350;2022-10-19T02:58:58;734.70;;;650.58;;
64609;SDS011;51019;46.090;6.350;2022-10-19T03:01:28;615.45;;;544.63;;
64609;SDS011;51019;46.090;6.350;2022-10-19T03:03:56;557.33;;;496.20;;
64609;SDS011;51019;46.090;6.350;2022-10-19T03:06:24;553.03;;;475.58;;
64609;SDS011;51019;46.090;6.350;2022-10-19T03:08:52;522.47;;;452.35;;
64609;SDS011;51019;46.090;6.350;2022-10-19T03:11:20;576.00;;;510.95;;
64609;SDS011;51019;46.090;6.350;2022-10-19T03:13:48;622.13;;;541.95;;
64609;SDS011;51019;46.090;6.350;2022-10-19T03:16:15;656.05;;;576.85;;
64609;SDS011;51019;46.090;6.350;2022-10-19T03:18:46;591.03;;;509.15;;
64609;SDS011;51019;46.090;6.350;2022-10-19T03:21:15;599.60;;;534.60;;
64609;SDS011;51019;46.090;6.350;2022-10-19T03:23:44;611.53;;;544.28;;
64609;SDS011;51019;46.090;6.350;2022-10-19T03:26:15;578.45;;;513.17;;
64609;SDS011;51019;46.090;6.350;2022-10-19T03:28:44;604.33;;;522.67;;
64609;SDS011;51019;46.090;6.350;2022-10-19T03:31:12;565.78;;;500.20;;
64609;SDS011;51019;46.090;6.350;2022-10-19T03:33:40;526.40;;;458.50;;
64609;SDS011;51019;46.090;6.350;2022-10-19T03:39:00;446.40;;;396.30;;
64609;SDS011;51019;46.090;6.350;2022-10-19T03:41:33;475.33;;;409.10;;
64609;SDS011;51019;46.090;6.350;2022-10-19T03:44:06;535.47;;;467.10;;
64609;SDS011;51019;46.090;6.350;2022-10-19T03:46:36;566.22;;;497.42;;
64609;SDS011;51019;46.090;6.350;2022-10-19T03:49:03;627.72;;;547.70;;
64609;SDS011;51019;46.090;6.350;2022-10-19T03:51:36;642.67;;;566.33;;
64609;SDS011;51019;46.090;6.350;2022-10-19T03:54:04;594.53;;;520.50;;
64609;SDS011;51019;46.090;6.350;2022-10-19T03:56:33;577.85;;;513.97;;
64609;SDS011;51019;46.090;6.350;2022-10-19T03:59:02;517.53;;;437.88;;
64609;SDS011;51019;46.090;6.350;2022-10-19T04:01:32;498.33;;;443.15;;
64609;SDS011;51019;46.090;6.350;2022-10-19T04:04:03;426.70;;;380.42;;
64609;SDS011;51019;46.090;6.350;2022-10-19T04:06:32;394.80;;;349.08;;
64609;SDS011;51019;46.090;6.350;2022-10-19T04:09:03;378.98;;;335.17;;
64609;SDS011;51019;46.090;6.350;2022-10-19T04:11:32;379.27;;;338.98;;
64609;SDS011;51019;46.090;6.350;2022-10-19T04:14:01;402.85;;;359.90;;
64609;SDS011;51019;46.090;6.350;2022-10-19T04:16:31;420.00;;;365.25;;
64609;SDS011;51019;46.090;6.350;2022-10-19T04:18:59;422.05;;;374.92;;
64609;SDS011;51019;46.090;6.350;2022-10-19T04:21:28;427.65;;;380.45;;
64609;SDS011;51019;46.090;6.350;2022-10-19T04:23:57;414.20;;;371.63;;
64609;SDS011;51019;46.090;6.350;2022-10-19T04:26:30;389.35;;;346.08;;
64609;SDS011;51019;46.090;6.350;2022-10-19T04:28:59;411.33;;;366.50;;
64609;SDS011;51019;46.090;6.350;2022-10-19T04:31:27;400.13;;;356.58;;
64609;SDS011;51019;46.090;6.350;2022-10-19T04:33:55;510.40;;;433.33;;
64609;SDS011;51019;46.090;6.350;2022-10-19T04:36:23;439.33;;;391.55;;
64609;SDS011;51019;46.090;6.350;2022-10-19T04:38:50;379.77;;;338.88;;
64609;SDS011;51019;46.090;6.350;2022-10-19T04:41:19;370.70;;;330.05;;
64609;SDS011;51019;46.090;6.350;2022-10-19T04:43:54;355.58;;;318.05;;
64609;SDS011;51019;46.090;6.350;2022-10-19T04:46:23;317.50;;;285.77;;
64609;SDS011;51019;46.090;6.350;2022-10-19T04:48:51;358.58;;;320.67;;
64609;SDS011;51019;46.090;6.350;2022-10-19T04:51:20;439.48;;;392.25;;
64609;SDS011;51019;46.090;6.350;2022-10-19T04:53:48;363.73;;;326.38;;
64609;SDS011;51019;46.090;6.350;2022-10-19T04:56:17;375.83;;;335.25;;
64609;SDS011;51019;46.090;6.350;2022-10-19T04:58:46;368.38;;;329.30;;
64609;SDS011;51019;46.090;6.350;2022-10-19T05:01:20;377.73;;;338.52;;
64609;SDS011;51019;46.090;6.350;2022-10-19T05:03:51;329.50;;;295.55;;
64609;SDS011;51019;46.090;6.350;2022-10-19T05:08:48;237.07;;;216.10;;
64609;SDS011;51019;46.090;6.350;2022-10-19T05:11:17;333.10;;;300.10;;
64609;SDS011;51019;46.090;6.350;2022-10-19T05:13:45;260.90;;;238.00;;
64609;SDS011;51019;46.090;6.350;2022-10-19T05:16:16;367.33;;;324.38;;
64609;SDS011;51019;46.090;6.350;2022-10-19T05:18:48;379.73;;;334.60;;
64609;SDS011;51019;46.090;6.350;2022-10-19T05:21:16;491.27;;;435.10;;
64609;SDS011;51019;46.090;6.350;2022-10-19T05:23:46;435.75;;;388.38;;
64609;SDS011;51019;46.090;6.350;2022-10-19T05:26:17;283.50;;;265.73;;
64609;SDS011;51019;46.090;6.350;2022-10-19T05:28:46;296.00;;;276.42;;
64609;SDS011;51019;46.090;6.350;2022-10-19T05:31:16;300.40;;;281.52;;
64609;SDS011;51019;46.090;6.350;2022-10-19T05:33:45;270.45;;;253.13;;
64609;SDS011;51019;46.090;6.350;2022-10-19T05:36:13;301.60;;;284.13;;
64609;SDS011;51019;46.090;6.350;2022-10-19T05:38:42;318.08;;;299.02;;
64609;SDS011;51019;46.090;6.350;2022-10-19T05:41:11;218.27;;;203.93;;
64609;SDS011;51019;46.090;6.350;2022-10-19T05:43:42;229.40;;;214.70;;
64609;SDS011;51019;46.090;6.350;2022-10-19T05:46:10;292.38;;;274.73;;
64609;SDS011;51019;46.090;6.350;2022-10-19T05:48:40;311.95;;;293.17;;
64609;SDS011;51019;46.090;6.350;2022-10-19T05:51:09;266.85;;;250.15;;
64609;SDS011;51019;46.090;6.350;2022-10-19T05:53:38;287.98;;;270.23;;
64609;SDS011;51019;46.090;6.350;2022-10-19T05:56:08;321.83;;;301.42;;
64609;SDS011;51019;46.090;6.350;2022-10-19T05:58:39;274.00;;;257.40;;
64609;SDS011;51019;46.090;6.350;2022-10-19T06:01:06;275.15;;;258.08;;
64609;SDS011;51019;46.090;6.350;2022-10-19T06:03:36;265.40;;;248.65;;
64609;SDS011;51019;46.090;6.350;2022-10-19T06:06:05;298.80;;;280.95;;
64609;SDS011;51019;46.090;6.350;2022-10-19T06:08:33;279.70;;;262.70;;
64609;SDS011;51019;46.090;6.350;2022-10-19T06:11:03;251.25;;;236.85;;
64609;SDS011;51019;46.090;6.350;2022-10-19T06:13:31;287.42;;;270.48;;
64609;SDS011;51019;46.090;6.350;2022-10-19T06:16:00;297.08;;;278.17;;
64609;SDS011;51019;46.090;6.350;2022-10-19T06:18:27;279.63;;;262.27;;
64609;SDS011;51019;46.090;6.350;2022-10-19T06:20:55;252.48;;;237.10;;
64609;SDS011;51019;46.090;6.350;2022-10-19T06:23:28;303.33;;;283.88;;
64609;SDS011;51019;46.090;6.350;2022-10-19T06:25:56;311.60;;;292.23;;
64609;SDS011;51019;46.090;6.350;2022-10-19T06:28:23;254.45;;;237.48;;
64609;SDS011;51019;46.090;6.350;2022-10-19T06:30:53;282.65;;;265.92;;
64609;SDS011;51019;46.090;6.350;2022-10-19T06:33:25;263.10;;;247.85;;
64609;SDS011;51019;46.090;6.350;2022-10-19T06:35:55;246.68;;;231.77;;
64609;SDS011;51019;46.090;6.350;2022-10-19T06:38:34;248.13;;;231.52;;
64609;SDS011;51019;46.090;6.350;2022-10-19T06:41:02;246.63;;;231.30;;
64609;SDS011;51019;46.090;6.350;2022-10-19T06:43:30;246.30;;;230.40;;
64609;SDS011;51019;46.090;6.350;2022-10-19T06:45:57;262.00;;;244.95;;
64609;SDS011;51019;46.090;6.350;2022-10-19T06:48:29;277.20;;;261.13;;
64609;SDS011;51019;46.090;6.350;2022-10-19T06:50:57;271.77;;;256.00;;
64609;SDS011;51019;46.090;6.350;2022-10-19T06:53:26;257.48;;;242.40;;
64609;SDS011;51019;46.090;6.350;2022-10-19T06:55:57;280.08;;;263.88;;
64609;SDS011;51019;46.090;6.350;2022-10-19T06:58:25;254.70;;;240.05;;
64609;SDS011;51019;46.090;6.350;2022-10-19T07:00:54;281.88;;;265.42;;
64609;SDS011;51019;46.090;6.350;2022-10-19T07:03:22;268.58;;;252.70;;
64609;SDS011;51019;46.090;6.350;2022-10-19T07:05:53;272.75;;;257.00;;
64609;SDS011;51019;46.090;6.350;2022-10-19T07:08:24;311.75;;;292.65;;
64609;SDS011;51019;46.090;6.350;2022-10-19T07:10:55;287.67;;;269.30;;
64609;SDS011;51019;46.090;6.350;2022-10-19T07:13:31;281.55;;;263.88;;
64609;SDS011;51019;46.090;6.350;2022-10-19T07:15:58;283.58;;;266.58;;
64609;SDS011;51019;46.090;6.350;2022-10-19T07:18:27;267.98;;;250.45;;
64609;SDS011;51019;46.090;6.350;2022-10-19T07:20:55;282.98;;;265.13;;
64609;SDS011;51019;46.090;6.350;2022-10-19T07:23:25;321.08;;;299.33;;
64609;SDS011;51019;46.090;6.350;2022-10-19T07:25:53;349.88;;;318.77;;
64609;SDS011;51019;46.090;6.350;2022-10-19T07:28:28;350.15;;;326.40;;
64609;SDS011;51019;46.090;6.350;2022-10-19T07:30:55;317.52;;;295.88;;
64609;SDS011;51019;46.090;6.350;2022-10-19T07:33:22;363.40;;;337.38;;
64609;SDS011;51019;46.090;6.350;2022-10-19T07:35:56;276.63;;;258.05;;
64609;SDS011;51019;46.090;6.350;2022-10-19T07:38:25;318.45;;;295.27;;
64609;SDS011;51019;46.090;6.350;2022-10-19T07:40:58;322.73;;;297.38;;
64609;SDS011;51019;46.090;6.350;2022-10-19T07:43:28;299.95;;;277.77;;
64609;SDS011;51019;46.090;6.350;2022-10-19T07:45:56;329.30;;;305.13;;
64609;SDS011;51019;46.090;6.350;2022-10-19T07:48:24;333.02;;;308.17;;
64609;SDS011;51019;46.090;6.350;2022-10-19T07:50:51;298.75;;;277.30;;
64609;SDS011;51019;46.090;6.350;2022-10-19T07:53:19;347.48;;;315.42;;
64609;SDS011;51019;46.090;6.350;2022-10-19T07:55:46;354.75;;;326.23;;
64609;SDS011;51019;46.090;6.350;2022-10-19T07:58:15;319.90;;;295.20;;
64609;SDS011;51019;46.090;6.350;2022-10-19T08:00:44;310.13;;;284.10;;
64609;SDS011;51019;46.090;6.350;2022-10-19T08:03:12;267.95;;;247.82;;
64609;SDS011;51019;46.090;6.350;2022-10-19T08:05:39;266.80;;;247.48;;
64609;SDS011;51019;46.090;6.350;2022-10-19T08:08:06;301.52;;;278.55;;
64609;SDS011;51019;46.090;6.350;2022-10-19T08:10:33;274.02;;;254.27;;
64609;SDS011;51019;46.090;6.350;2022-10-19T08:13:01;326.70;;;303.45;;
64609;SDS011;51019;46.090;6.350;2022-10-19T08:15:28;293.15;;;273.20;;
64609;SDS011;51019;46.090;6.350;2022-10-19T08:17:58;330.85;;;307.20;;
64609;SDS011;51019;46.090;6.350;2022-10-19T08:20:25;277.58;;;260.15;;
64609;SDS011;51019;46.090;6.350;2022-10-19T08:22:53;283.60;;;264.60;;
64609;SDS011;51019;46.090;6.350;2022-10-19T08:25:24;275.58;;;257.73;;
64609;SDS011;51019;46.090;6.350;2022-10-19T08:27:52;252.07;;;236.30;;
64609;SDS011;51019;46.090;6.350;2022-10-19T08:30:19;286.58;;;266.73;;
64609;SDS011;51019;46.090;6.350;2022-10-19T08:32:47;225.25;;;211.25;;
64609;SDS011;51019;46.090;6.350;2022-10-19T08:35:16;243.70;;;228.82;;
64609;SDS011;51019;46.090;6.350;2022-10-19T08:37:44;224.10;;;210.02;;
64609;SDS011;51019;46.090;6.350;2022-10-19T08:40:15;255.55;;;237.55;;
64609;SDS011;51019;46.090;6.350;2022-10-19T08:42:49;224.18;;;208.20;;
64609;SDS011;51019;46.090;6.350;2022-10-19T08:48:21;276.40;;;255.48;;
64609;SDS011;51019;46.090;6.350;2022-10-19T08:50:53;272.52;;;252.43;;
64609;SDS011;51019;46.090;6.350;2022-10-19T08:53:24;283.60;;;259.58;;
64609;SDS011;51019;46.090;6.350;2022-10-19T08:56:16;241.82;;;222.75;;
64609;SDS011;51019;46.090;6.350;2022-10-19T08:58:53;220.90;;;204.90;;
64609;SDS011;51019;46.090;6.350;2022-10-19T09:01:33;185.60;;;174.63;;
64609;SDS011;51019;46.090;6.350;2022-10-19T09:04:07;193.40;;;181.90;;
64609;SDS011;51019;46.090;6.350;2022-10-19T09:06:45;188.73;;;177.40;;
64609;SDS011;51019;46.090;6.350;2022-10-19T09:09:17;153.18;;;144.43;;
64609;SDS011;51019;46.090;6.350;2022-10-19T09:11:46;161.52;;;152.20;;
64609;SDS011;51019;46.090;6.350;2022-10-19T09:14:17;180.93;;;170.50;;
64609;SDS011;51019;46.090;6.350;2022-10-19T09:16:48;162.93;;;152.93;;
64609;SDS011;51019;46.090;6.350;2022-10-19T09:19:17;164.88;;;155.43;;
64609;SDS011;51019;46.090;6.350;2022-10-19T09:21:52;173.38;;;163.10;;
64609;SDS011;51019;46.090;6.350;2022-10-19T09:24:26;166.25;;;156.88;;
64609;SDS011;51019;46.090;6.350;2022-10-19T09:26:56;171.75;;;161.85;;
64609;SDS011;51019;46.090;6.350;2022-10-19T09:29:42;186.48;;;175.85;;
64609;SDS011;51019;46.090;6.350;2022-10-19T09:32:13;177.95;;;167.88;;
64609;SDS011;51019;46.090;6.350;2022-10-19T09:34:45;216.98;;;205.68;;
64609;SDS011;51019;46.090;6.350;2022-10-19T09:37:17;177.27;;;168.07;;
64609;SDS011;51019;46.090;6.350;2022-10-19T09:39:46;207.93;;;196.63;;
64609;SDS011;51019;46.090;6.350;2022-10-19T09:42:16;211.43;;;199.75;;
64609;SDS011;51019;46.090;6.350;2022-10-19T09:44:49;203.82;;;192.40;;
64609;SDS011;51019;46.090;6.350;2022-10-19T09:47:32;194.52;;;184.15;;
64609;SDS011;51019;46.090;6.350;2022-10-19T09:50:05;209.68;;;198.75;;
64609;SDS011;51019;46.090;6.350;2022-10-19T09:52:36;214.35;;;201.82;;
64609;SDS011;51019;46.090;6.350;2022-10-19T09:55:09;230.23;;;217.35;;
64609;SDS011;51019;46.090;6.350;2022-10-19T09:57:47;220.32;;;208.43;;
64609;SDS011;51019;46.090;6.350;2022-10-19T10:00:16;235.52;;;222.60;;
64609;SDS011;51019;46.090;6.350;2022-10-19T10:02:48;224.18;;;211.85;;
64609;SDS011;51019;46.090;6.350;2022-10-19T10:05:16;225.85;;;213.68;;
64609;SDS011;51019;46.090;6.350;2022-10-19T10:07:46;238.48;;;224.93;;
64609;SDS011;51019;46.090;6.350;2022-10-19T10:10:20;234.18;;;221.35;;
64609;SDS011;51019;46.090;6.350;2022-10-19T10:12:50;234.32;;;221.23;;
64609;SDS011;51019;46.090;6.350;2022-10-19T10:15:20;243.43;;;230.45;;
64609;SDS011;51019;46.090;6.350;2022-10-19T10:17:50;224.82;;;212.57;;
64609;SDS011;51019;46.090;6.350;2022-10-19T10:20:23;227.25;;;214.98;;
64609;SDS011;51019;46.090;6.350;2022-10-19T10:22:56;243.65;;;229.95;;
64609;SDS011;51019;46.090;6.350;2022-10-19T10:25:27;246.52;;;232.52;;
64609;SDS011;51019;46.090;6.350;2022-10-19T10:27:57;237.27;;;223.05;;
64609;SDS011;51019;46.090;6.350;2022-10-19T10:30:28;240.02;;;226.23;;
64609;SDS011;51019;46.090;6.350;2022-10-19T10:35:28;216.55;;;204.77;;
64609;SDS011;51019;46.090;6.350;2022-10-19T10:38:12;192.50;;;182.10;;
64609;SDS011;51019;46.090;6.350;2022-10-19T10:44:05;207.30;;;196.52;;
64609;SDS011;51019;46.090;6.350;2022-10-19T10:46:35;228.15;;;215.63;;
64609;SDS011;51019;46.090;6.350;2022-10-19T10:49:07;223.82;;;211.65;;
64609;SDS011;51019;46.090;6.350;2022-10-19T10:51:46;246.77;;;232.88;;
64609;SDS011;51019;46.090;6.350;2022-10-19T10:54:22;203.35;;;192.13;;
64609;SDS011;51019;46.090;6.350;2022-10-19T10:56:56;183.13;;;172.90;;
64609;SDS011;51019;46.090;6.350;2022-10-19T10:59:29;172.30;;;163.20;;
64609;SDS011;51019;46.090;6.350;2022-10-19T11:02:01;171.90;;;163.00;;
64609;SDS011;51019;46.090;6.350;2022-10-19T11:04:38;154.82;;;147.13;;
64609;SDS011;51019;46.090;6.350;2022-10-19T11:07:14;141.73;;;134.68;;
64609;SDS011;51019;46.090;6.350;2022-10-19T11:09:47;159.90;;;151.93;;
64609;SDS011;51019;46.090;6.350;2022-10-19T11:12:30;164.90;;;156.50;;
64609;SDS011;51019;46.090;6.350;2022-10-19T11:15:03;158.48;;;150.25;;
64609;SDS011;51019;46.090;6.350;2022-10-19T11:17:38;139.55;;;132.88;;
64609;SDS011;51019;46.090;6.350;2022-10-19T11:20:14;151.02;;;143.15;;
64609;SDS011;51019;46.090;6.350;2022-10-19T11:22:43;175.27;;;165.88;;
64609;SDS011;51019;46.090;6.350;2022-10-19T11:25:25;182.07;;;172.32;;
64609;SDS011;51019;46.090;6.350;2022-10-19T11:28:01;184.82;;;175.38;;
64609;SDS011;51019;46.090;6.350;2022-10-19T11:30:48;141.63;;;133.95;;
64609;SDS011;51019;46.090;6.350;2022-10-19T11:33:27;146.27;;;138.00;;
64609;SDS011;51019;46.090;6.350;2022-10-19T11:36:10;131.25;;;124.38;;
64609;SDS011;51019;46.090;6.350;2022-10-19T11:38:52;150.88;;;142.68;;
64609;SDS011;51019;46.090;6.350;2022-10-19T11:41:37;155.77;;;147.40;;
64609;SDS011;51019;46.090;6.350;2022-10-19T11:44:14;123.75;;;116.95;;
64609;SDS011;51019;46.090;6.350;2022-10-19T11:47:03;115.05;;;108.97;;
64609;SDS011;51019;46.090;6.350;2022-10-19T11:49:55;111.57;;;105.50;;
64609;SDS011;51019;46.090;6.350;2022-10-19T11:52:31;89.72;;;85.22;;
64609;SDS011;51019;46.090;6.350;2022-10-19T11:55:12;92.82;;;87.75;;
64609;SDS011;51019;46.090;6.350;2022-10-19T11:57:49;93.43;;;88.45;;
64609;SDS011;51019;46.090;6.350;2022-10-19T12:00:23;83.88;;;79.28;;
64609;SDS011;51019;46.090;6.350;2022-10-19T12:06:02;98.72;;;93.35;;
64609;SDS011;51019;46.090;6.350;2022-10-19T12:08:41;85.40;;;81.13;;
64609;SDS011;51019;46.090;6.350;2022-10-19T12:11:21;68.82;;;64.85;;
64609;SDS011;51019;46.090;6.350;2022-10-19T12:13:56;85.97;;;81.75;;
64609;SDS011;51019;46.090;6.350;2022-10-19T12:16:28;97.15;;;92.20;;
64609;SDS011;51019;46.090;6.350;2022-10-19T12:19:03;103.63;;;97.97;;
64609;SDS011;51019;46.090;6.350;2022-10-19T12:21:35;137.60;;;130.05;;
64609;SDS011;51019;46.090;6.350;2022-10-19T12:24:11;155.55;;;147.25;;
64609;SDS011;51019;46.090;6.350;2022-10-19T12:26:41;184.70;;;174.77;;
64609;SDS011;51019;46.090;6.350;2022-10-19T12:29:13;181.15;;;171.00;;
64609;SDS011;51019;46.090;6.350;2022-10-19T12:31:44;199.35;;;188.57;;
64609;SDS011;51019;46.090;6.350;2022-10-19T12:34:17;212.95;;;201.43;;
64609;SDS011;51019;46.090;6.350;2022-10-19T12:36:57;201.23;;;189.45;;
64609;SDS011;51019;46.090;6.350;2022-10-19T12:39:33;219.38;;;206.65;;
64609;SDS011;51019;46.090;6.350;2022-10-19T12:42:06;247.85;;;233.73;;
64609;SDS011;51019;46.090;6.350;2022-10-19T12:50:57;240.23;;;222.40;;
64609;SDS011;51019;46.090;6.350;2022-10-19T12:53:33;252.35;;;233.52;;
64609;SDS011;51019;46.090;6.350;2022-10-19T12:56:04;218.43;;;204.23;;
64609;SDS011;51019;46.090;6.350;2022-10-19T12:58:34;258.75;;;236.07;;
64609;SDS011;51019;46.090;6.350;2022-10-19T13:01:07;242.65;;;224.88;;
64609;SDS011;51019;46.090;6.350;2022-10-19T13:03:44;216.57;;;202.90;;
64609;SDS011;51019;46.090;6.350;2022-10-19T13:06:14;198.15;;;186.65;;
64609;SDS011;51019;46.090;6.350;2022-10-19T13:08:47;220.95;;;208.00;;
64609;SDS011;51019;46.090;6.350;2022-10-19T13:11:22;200.60;;;188.40;;
64609;SDS011;51019;46.090;6.350;2022-10-19T13:13:53;186.25;;;175.70;;
64609;SDS011;51019;46.090;6.350;2022-10-19T13:19:33;228.15;;;210.15;;
64609;SDS011;51019;46.090;6.350;2022-10-19T13:28:17;376.92;;;331.08;;
64609;SDS011;51019;46.090;6.350;2022-10-19T13:31:21;449.17;;;395.98;;
64609;SDS011;51019;46.090;6.350;2022-10-19T13:33:50;595.88;;;531.90;;
64609;SDS011;51019;46.090;6.350;2022-10-19T13:36:20;562.00;;;500.77;;
64609;SDS011;51019;46.090;6.350;2022-10-19T13:41:44;442.35;;;394.25;;
64609;SDS011;51019;46.090;6.350;2022-10-19T13:44:19;418.20;;;372.77;;
64609;SDS011;51019;46.090;6.350;2022-10-19T13:50:05;566.78;;;506.00;;
64609;SDS011;51019;46.090;6.350;2022-10-19T13:59:04;311.10;;;279.20;;
64609;SDS011;51019;46.090;6.350;2022-10-19T14:01:59;328.55;;;295.73;;
64609;SDS011;51019;46.090;6.350;2022-10-19T14:04:49;434.42;;;384.25;;
64609;SDS011;51019;46.090;6.350;2022-10-19T14:07:29;463.38;;;411.92;;
64609;SDS011;51019;46.090;6.350;2022-10-19T14:10:13;412.08;;;367.33;;
64609;SDS011;51019;46.090;6.350;2022-10-19T14:12:44;448.75;;;399.98;;
64609;SDS011;51019;46.090;6.350;2022-10-19T14:15:20;382.85;;;340.77;;
64609;SDS011;51019;46.090;6.350;2022-10-19T14:17:51;412.55;;;369.92;;
64609;SDS011;51019;46.090;6.350;2022-10-19T14:20:23;362.90;;;325.20;;
64609;SDS011;51019;46.090;6.350;2022-10-19T14:22:54;325.20;;;290.63;;
64609;SDS011;51019;46.090;6.350;2022-10-19T14:25:27;333.23;;;298.65;;
64609;SDS011;51019;46.090;6.350;2022-10-19T14:27:57;385.95;;;344.58;;
64609;SDS011;51019;46.090;6.350;2022-10-19T14:30:28;370.42;;;326.63;;
64609;SDS011;51019;46.090;6.350;2022-10-19T14:33:05;349.52;;;313.00;;
64609;SDS011;51019;46.090;6.350;2022-10-19T14:35:36;407.13;;;361.25;;
64609;SDS011;51019;46.090;6.350;2022-10-19T14:38:06;336.55;;;303.80;;
64609;SDS011;51019;46.090;6.350;2022-10-19T14:40:38;323.55;;;290.05;;
64609;SDS011;51019;46.090;6.350;2022-10-19T14:43:12;302.10;;;272.30;;
64609;SDS011;51019;46.090;6.350;2022-10-19T14:46:01;343.30;;;308.55;;
64609;SDS011;51019;46.090;6.350;2022-10-19T14:48:37;236.40;;;215.75;;
64609;SDS011;51019;46.090;6.350;2022-10-19T14:51:07;223.70;;;206.27;;
64609;SDS011;51019;46.090;6.350;2022-10-19T14:53:46;369.10;;;332.13;;
64609;SDS011;51019;46.090;6.350;2022-10-19T14:56:20;360.27;;;324.42;;
64609;SDS011;51019;46.090;6.350;2022-10-19T14:58:52;442.65;;;395.95;;
64609;SDS011;51019;46.090;6.350;2022-10-19T15:01:26;576.15;;;512.85;;
64609;SDS011;51019;46.090;6.350;2022-10-19T15:03:56;619.10;;;544.33;;
64609;SDS011;51019;46.090;6.350;2022-10-19T15:06:26;699.63;;;616.15;;
64609;SDS011;51019;46.090;6.350;2022-10-19T15:08:57;705.13;;;612.35;;
64609;SDS011;51019;46.090;6.350;2022-10-19T15:11:30;733.88;;;651.60;;
64609;SDS011;51019;46.090;6.350;2022-10-19T15:14:05;690.83;;;607.97;;